sensor_id;sensor_type;location;lat;lon;timestamp;P1;durP1;ratioP1;P2;durP2;ratioP2
56893;SDS011;43392;50.078;13.704;2022-12-29T00:01:51;6.88;;;2.50;;
56893;SDS011;43392;50.078;13.704;2022-12-29T00:04:18;5.10;;;2.25;;
56893;SDS011;43392;50.078;13.704;2022-12-29T00:06:44;5.82;;;2.97;;
56893;SDS011;43392;50.078;13.704;2022-12-29T00:09:11;4.93;;;2.30;;
56893;SDS011;43392;50.078;13.704;2022-12-29T00:11:38;4.97;;;2.30;;
56893;SDS011;43392;50.078;13.704;2022-12-29T00:14:07;6.57;;;2.60;;
56893;SDS011;43392;50.078;13.704;2022-12-29T00:16:52;6.78;;;2.80;;
56893;SDS011;43392;50.078;13.704;2022-12-29T00:19:18;6.13;;;2.33;;
56893;SDS011;43392;50.078;13.704;2022-12-29T00:22:03;6.60;;;2.20;;
56893;SDS011;43392;50.078;13.704;2022-12-29T00:24:47;6.10;;;2.63;;
56893;SDS011;43392;50.078;13.704;2022-12-29T00:27:32;5.47;;;2.50;;
56893;SDS011;43392;50.078;13.704;2022-12-29T00:30:17;4.90;;;2.10;;
56893;SDS011;43392;50.078;13.704;2022-12-29T00:33:08;5.78;;;2.30;;
56893;SDS011;43392;50.078;13.704;2022-12-29T00:36:05;5.35;;;2.10;;
56893;SDS011;43392;50.078;13.704;2022-12-29T00:38:37;5.72;;;2.30;;
56893;SDS011;43392;50.078;13.704;2022-12-29T00:41:26;7.60;;;2.42;;
56893;SDS011;43392;50.078;13.704;2022-12-29T00:44:11;5.63;;;2.75;;
56893;SDS011;43392;50.078;13.704;2022-12-29T00:46:41;5.30;;;2.45;;
56893;SDS011;43392;50.078;13.704;2022-12-29T00:49:09;6.97;;;2.65;;
56893;SDS011;43392;50.078;13.704;2022-12-29T00:51:55;5.90;;;2.75;;
56893;SDS011;43392;50.078;13.704;2022-12-29T00:54:23;6.35;;;2.50;;
56893;SDS011;43392;50.078;13.704;2022-12-29T00:56:50;5.05;;;2.22;;
56893;SDS011;43392;50.078;13.704;2022-12-29T00:59:18;6.15;;;2.28;;
56893;SDS011;43392;50.078;13.704;2022-12-29T01:01:46;6.97;;;2.38;;
56893;SDS011;43392;50.078;13.704;2022-12-29T01:04:13;6.55;;;2.33;;
56893;SDS011;43392;50.078;13.704;2022-12-29T01:06:40;6.55;;;2.47;;
56893;SDS011;43392;50.078;13.704;2022-12-29T01:09:07;6.03;;;2.35;;
56893;SDS011;43392;50.078;13.704;2022-12-29T01:11:52;5.30;;;2.22;;
56893;SDS011;43392;50.078;13.704;2022-12-29T01:14:19;6.53;;;2.30;;
56893;SDS011;43392;50.078;13.704;2022-12-29T01:16:47;6.43;;;2.60;;
56893;SDS011;43392;50.078;13.704;2022-12-29T01:19:14;5.22;;;2.40;;
56893;SDS011;43392;50.078;13.704;2022-12-29T01:21:42;6.82;;;2.40;;
56893;SDS011;43392;50.078;13.704;2022-12-29T01:24:08;5.53;;;2.33;;
56893;SDS011;43392;50.078;13.704;2022-12-29T01:26:35;7.22;;;2.28;;
56893;SDS011;43392;50.078;13.704;2022-12-29T01:29:02;4.25;;;2.17;;
56893;SDS011;43392;50.078;13.704;2022-12-29T01:31:28;6.63;;;2.63;;
56893;SDS011;43392;50.078;13.704;2022-12-29T01:33:56;7.40;;;2.30;;
56893;SDS011;43392;50.078;13.704;2022-12-29T01:36:23;7.25;;;2.40;;
56893;SDS011;43392;50.078;13.704;2022-12-29T01:38:50;7.40;;;2.88;;
56893;SDS011;43392;50.078;13.704;2022-12-29T01:41:17;6.53;;;2.65;;
56893;SDS011;43392;50.078;13.704;2022-12-29T01:43:44;6.78;;;2.45;;
56893;SDS011;43392;50.078;13.704;2022-12-29T01:46:19;7.53;;;2.55;;
56893;SDS011;43392;50.078;13.704;2022-12-29T01:48:51;6.68;;;2.42;;
56893;SDS011;43392;50.078;13.704;2022-12-29T01:51:21;3.92;;;2.05;;
56893;SDS011;43392;50.078;13.704;2022-12-29T01:53:49;6.35;;;2.70;;
56893;SDS011;43392;50.078;13.704;2022-12-29T01:56:17;4.65;;;2.33;;
56893;SDS011;43392;50.078;13.704;2022-12-29T01:58:46;6.57;;;2.80;;
56893;SDS011;43392;50.078;13.704;2022-12-29T02:01:15;5.47;;;2.40;;
56893;SDS011;43392;50.078;13.704;2022-12-29T02:03:45;6.75;;;2.58;;
56893;SDS011;43392;50.078;13.704;2022-12-29T02:06:12;5.93;;;2.67;;
56893;SDS011;43392;50.078;13.704;2022-12-29T02:08:46;4.43;;;2.42;;
56893;SDS011;43392;50.078;13.704;2022-12-29T02:11:13;5.00;;;2.40;;
56893;SDS011;43392;50.078;13.704;2022-12-29T02:13:41;5.25;;;2.40;;
56893;SDS011;43392;50.078;13.704;2022-12-29T02:16:11;4.85;;;2.10;;
56893;SDS011;43392;50.078;13.704;2022-12-29T02:18:48;5.80;;;2.40;;
56893;SDS011;43392;50.078;13.704;2022-12-29T02:21:32;6.10;;;2.80;;
56893;SDS011;43392;50.078;13.704;2022-12-29T02:24:20;6.45;;;2.20;;
56893;SDS011;43392;50.078;13.704;2022-12-29T02:30:12;4.20;;;2.15;;
56893;SDS011;43392;50.078;13.704;2022-12-29T02:32:48;5.47;;;2.35;;
56893;SDS011;43392;50.078;13.704;2022-12-29T02:35:21;4.20;;;2.00;;
56893;SDS011;43392;50.078;13.704;2022-12-29T02:37:58;5.88;;;2.33;;
56893;SDS011;43392;50.078;13.704;2022-12-29T02:40:36;4.63;;;2.17;;
56893;SDS011;43392;50.078;13.704;2022-12-29T02:43:09;3.92;;;2.03;;
56893;SDS011;43392;50.078;13.704;2022-12-29T02:45:43;4.57;;;2.38;;
56893;SDS011;43392;50.078;13.704;2022-12-29T02:48:18;6.00;;;2.28;;
56893;SDS011;43392;50.078;13.704;2022-12-29T02:50:50;5.90;;;2.55;;
56893;SDS011;43392;50.078;13.704;2022-12-29T02:53:23;6.03;;;2.28;;
56893;SDS011;43392;50.078;13.704;2022-12-29T02:56:06;5.45;;;2.65;;
56893;SDS011;43392;50.078;13.704;2022-12-29T02:58:33;5.30;;;2.20;;
56893;SDS011;43392;50.078;13.704;2022-12-29T03:01:06;3.70;;;2.00;;
56893;SDS011;43392;50.078;13.704;2022-12-29T03:03:47;5.13;;;2.20;;
56893;SDS011;43392;50.078;13.704;2022-12-29T03:06:24;4.53;;;2.15;;
56893;SDS011;43392;50.078;13.704;2022-12-29T03:08:59;5.35;;;2.10;;
56893;SDS011;43392;50.078;13.704;2022-12-29T03:11:33;4.05;;;2.30;;
56893;SDS011;43392;50.078;13.704;2022-12-29T03:14:26;6.47;;;3.63;;
56893;SDS011;43392;50.078;13.704;2022-12-29T03:17:15;11.00;;;6.22;;
56893;SDS011;43392;50.078;13.704;2022-12-29T03:19:52;17.73;;;9.70;;
56893;SDS011;43392;50.078;13.704;2022-12-29T03:22:28;8.05;;;4.78;;
56893;SDS011;43392;50.078;13.704;2022-12-29T03:25:01;5.10;;;2.72;;
56893;SDS011;43392;50.078;13.704;2022-12-29T03:27:31;4.88;;;2.33;;
56893;SDS011;43392;50.078;13.704;2022-12-29T03:30:03;5.32;;;2.30;;
56893;SDS011;43392;50.078;13.704;2022-12-29T03:32:32;9.60;;;4.93;;
56893;SDS011;43392;50.078;13.704;2022-12-29T03:35:04;7.38;;;4.03;;
56893;SDS011;43392;50.078;13.704;2022-12-29T03:37:35;16.88;;;7.97;;
56893;SDS011;43392;50.078;13.704;2022-12-29T03:40:05;18.60;;;9.30;;
56893;SDS011;43392;50.078;13.704;2022-12-29T03:42:34;15.55;;;6.82;;
56893;SDS011;43392;50.078;13.704;2022-12-29T03:45:03;10.07;;;4.93;;
56893;SDS011;43392;50.078;13.704;2022-12-29T03:47:32;8.02;;;3.40;;
56893;SDS011;43392;50.078;13.704;2022-12-29T03:49:59;5.90;;;2.67;;
56893;SDS011;43392;50.078;13.704;2022-12-29T03:52:27;4.72;;;2.50;;
56893;SDS011;43392;50.078;13.704;2022-12-29T03:54:54;6.22;;;2.70;;
56893;SDS011;43392;50.078;13.704;2022-12-29T03:57:20;5.32;;;2.53;;
56893;SDS011;43392;50.078;13.704;2022-12-29T03:59:47;3.88;;;2.10;;
56893;SDS011;43392;50.078;13.704;2022-12-29T04:02:14;5.43;;;2.30;;
56893;SDS011;43392;50.078;13.704;2022-12-29T04:04:41;4.85;;;2.40;;
56893;SDS011;43392;50.078;13.704;2022-12-29T04:07:07;3.80;;;1.88;;
56893;SDS011;43392;50.078;13.704;2022-12-29T04:09:35;5.30;;;2.20;;
56893;SDS011;43392;50.078;13.704;2022-12-29T04:12:02;6.43;;;2.17;;
56893;SDS011;43392;50.078;13.704;2022-12-29T04:14:29;4.88;;;2.00;;
56893;SDS011;43392;50.078;13.704;2022-12-29T04:16:55;4.72;;;2.13;;
56893;SDS011;43392;50.078;13.704;2022-12-29T04:19:22;5.47;;;1.80;;
56893;SDS011;43392;50.078;13.704;2022-12-29T04:21:49;4.70;;;2.50;;
56893;SDS011;43392;50.078;13.704;2022-12-29T04:24:15;5.78;;;2.88;;
56893;SDS011;43392;50.078;13.704;2022-12-29T04:26:44;7.95;;;3.70;;
56893;SDS011;43392;50.078;13.704;2022-12-29T04:29:10;7.93;;;3.42;;
56893;SDS011;43392;50.078;13.704;2022-12-29T04:31:37;8.05;;;3.45;;
56893;SDS011;43392;50.078;13.704;2022-12-29T04:34:04;9.15;;;3.53;;
56893;SDS011;43392;50.078;13.704;2022-12-29T04:36:30;8.82;;;3.58;;
56893;SDS011;43392;50.078;13.704;2022-12-29T04:38:57;7.70;;;3.40;;
56893;SDS011;43392;50.078;13.704;2022-12-29T04:41:23;5.82;;;2.88;;
56893;SDS011;43392;50.078;13.704;2022-12-29T04:43:51;7.43;;;3.25;;
56893;SDS011;43392;50.078;13.704;2022-12-29T04:46:18;6.47;;;2.90;;
56893;SDS011;43392;50.078;13.704;2022-12-29T04:48:44;7.00;;;2.55;;
56893;SDS011;43392;50.078;13.704;2022-12-29T04:51:11;6.18;;;2.20;;
56893;SDS011;43392;50.078;13.704;2022-12-29T04:53:38;5.57;;;2.58;;
56893;SDS011;43392;50.078;13.704;2022-12-29T04:56:05;5.40;;;2.45;;
56893;SDS011;43392;50.078;13.704;2022-12-29T04:58:32;5.30;;;2.13;;
56893;SDS011;43392;50.078;13.704;2022-12-29T05:01:00;4.45;;;2.15;;
56893;SDS011;43392;50.078;13.704;2022-12-29T05:03:26;5.25;;;2.30;;
56893;SDS011;43392;50.078;13.704;2022-12-29T05:05:53;4.28;;;2.40;;
56893;SDS011;43392;50.078;13.704;2022-12-29T05:08:20;5.07;;;2.13;;
56893;SDS011;43392;50.078;13.704;2022-12-29T05:10:47;4.65;;;2.28;;
56893;SDS011;43392;50.078;13.704;2022-12-29T05:13:16;5.00;;;2.08;;
56893;SDS011;43392;50.078;13.704;2022-12-29T05:15:45;6.03;;;2.40;;
56893;SDS011;43392;50.078;13.704;2022-12-29T05:18:15;5.40;;;2.10;;
56893;SDS011;43392;50.078;13.704;2022-12-29T05:20:41;4.43;;;1.95;;
56893;SDS011;43392;50.078;13.704;2022-12-29T05:23:08;5.90;;;2.40;;
56893;SDS011;43392;50.078;13.704;2022-12-29T05:25:35;3.38;;;1.65;;
56893;SDS011;43392;50.078;13.704;2022-12-29T05:28:02;3.45;;;1.90;;
56893;SDS011;43392;50.078;13.704;2022-12-29T05:30:28;5.20;;;2.22;;
56893;SDS011;43392;50.078;13.704;2022-12-29T05:32:55;4.78;;;1.88;;
56893;SDS011;43392;50.078;13.704;2022-12-29T05:35:23;3.90;;;1.80;;
56893;SDS011;43392;50.078;13.704;2022-12-29T05:37:49;3.53;;;1.83;;
56893;SDS011;43392;50.078;13.704;2022-12-29T05:40:16;3.40;;;1.70;;
56893;SDS011;43392;50.078;13.704;2022-12-29T05:42:43;4.55;;;2.00;;
56893;SDS011;43392;50.078;13.704;2022-12-29T05:45:09;5.15;;;1.95;;
56893;SDS011;43392;50.078;13.704;2022-12-29T05:47:36;4.65;;;2.10;;
56893;SDS011;43392;50.078;13.704;2022-12-29T05:50:03;6.65;;;1.90;;
56893;SDS011;43392;50.078;13.704;2022-12-29T05:52:31;4.18;;;1.63;;
56893;SDS011;43392;50.078;13.704;2022-12-29T05:54:58;3.83;;;1.80;;
56893;SDS011;43392;50.078;13.704;2022-12-29T05:57:24;4.60;;;2.25;;
56893;SDS011;43392;50.078;13.704;2022-12-29T05:59:51;3.55;;;1.73;;
56893;SDS011;43392;50.078;13.704;2022-12-29T06:02:18;4.45;;;1.75;;
56893;SDS011;43392;50.078;13.704;2022-12-29T06:04:44;4.97;;;1.63;;
56893;SDS011;43392;50.078;13.704;2022-12-29T06:07:11;4.03;;;2.00;;
56893;SDS011;43392;50.078;13.704;2022-12-29T06:09:39;3.30;;;1.85;;
56893;SDS011;43392;50.078;13.704;2022-12-29T06:12:05;3.42;;;1.80;;
56893;SDS011;43392;50.078;13.704;2022-12-29T06:14:32;3.65;;;1.70;;
56893;SDS011;43392;50.078;13.704;2022-12-29T06:16:59;4.10;;;2.20;;
56893;SDS011;43392;50.078;13.704;2022-12-29T06:19:25;4.25;;;1.98;;
56893;SDS011;43392;50.078;13.704;2022-12-29T06:21:52;5.35;;;2.78;;
56893;SDS011;43392;50.078;13.704;2022-12-29T06:24:19;7.40;;;2.92;;
56893;SDS011;43392;50.078;13.704;2022-12-29T06:26:47;5.50;;;2.58;;
56893;SDS011;43392;50.078;13.704;2022-12-29T06:29:14;5.97;;;2.42;;
56893;SDS011;43392;50.078;13.704;2022-12-29T06:31:42;5.82;;;2.65;;
56893;SDS011;43392;50.078;13.704;2022-12-29T06:34:10;4.70;;;1.90;;
56893;SDS011;43392;50.078;13.704;2022-12-29T06:36:37;4.60;;;1.90;;
56893;SDS011;43392;50.078;13.704;2022-12-29T06:39:03;5.20;;;2.22;;
56893;SDS011;43392;50.078;13.704;2022-12-29T06:41:30;2.90;;;1.63;;
56893;SDS011;43392;50.078;13.704;2022-12-29T06:43:58;5.28;;;1.83;;
56893;SDS011;43392;50.078;13.704;2022-12-29T06:46:24;4.82;;;1.92;;
56893;SDS011;43392;50.078;13.704;2022-12-29T06:48:51;4.07;;;2.03;;
56893;SDS011;43392;50.078;13.704;2022-12-29T06:51:18;4.93;;;2.10;;
56893;SDS011;43392;50.078;13.704;2022-12-29T06:53:44;4.63;;;2.00;;
56893;SDS011;43392;50.078;13.704;2022-12-29T06:56:11;4.20;;;1.90;;
56893;SDS011;43392;50.078;13.704;2022-12-29T06:58:37;5.97;;;2.13;;
56893;SDS011;43392;50.078;13.704;2022-12-29T07:01:05;4.82;;;1.63;;
56893;SDS011;43392;50.078;13.704;2022-12-29T07:03:32;3.72;;;1.80;;
56893;SDS011;43392;50.078;13.704;2022-12-29T07:05:58;6.85;;;2.38;;
56893;SDS011;43392;50.078;13.704;2022-12-29T07:08:25;4.13;;;1.85;;
56893;SDS011;43392;50.078;13.704;2022-12-29T07:10:51;4.15;;;2.03;;
56893;SDS011;43392;50.078;13.704;2022-12-29T07:13:18;4.35;;;1.95;;
56893;SDS011;43392;50.078;13.704;2022-12-29T07:15:45;5.07;;;2.10;;
56893;SDS011;43392;50.078;13.704;2022-12-29T07:18:12;5.22;;;2.17;;
56893;SDS011;43392;50.078;13.704;2022-12-29T07:20:39;4.32;;;1.90;;
56893;SDS011;43392;50.078;13.704;2022-12-29T07:23:06;4.82;;;2.17;;
56893;SDS011;43392;50.078;13.704;2022-12-29T07:25:32;5.57;;;1.80;;
56893;SDS011;43392;50.078;13.704;2022-12-29T07:28:00;6.15;;;2.70;;
56893;SDS011;43392;50.078;13.704;2022-12-29T07:30:26;3.88;;;1.83;;
56893;SDS011;43392;50.078;13.704;2022-12-29T07:32:53;5.57;;;2.70;;
56893;SDS011;43392;50.078;13.704;2022-12-29T07:35:21;4.88;;;2.00;;
56893;SDS011;43392;50.078;13.704;2022-12-29T07:37:47;4.20;;;1.92;;
56893;SDS011;43392;50.078;13.704;2022-12-29T07:40:14;7.55;;;2.95;;
56893;SDS011;43392;50.078;13.704;2022-12-29T07:42:41;24.48;;;13.13;;
56893;SDS011;43392;50.078;13.704;2022-12-29T07:45:08;7.38;;;3.78;;
56893;SDS011;43392;50.078;13.704;2022-12-29T07:47:35;8.38;;;2.95;;
56893;SDS011;43392;50.078;13.704;2022-12-29T07:50:02;4.22;;;2.10;;
56893;SDS011;43392;50.078;13.704;2022-12-29T07:52:30;5.03;;;2.70;;
56893;SDS011;43392;50.078;13.704;2022-12-29T07:54:56;5.13;;;1.98;;
56893;SDS011;43392;50.078;13.704;2022-12-29T07:57:23;4.75;;;2.08;;
56893;SDS011;43392;50.078;13.704;2022-12-29T07:59:50;4.63;;;1.92;;
56893;SDS011;43392;50.078;13.704;2022-12-29T08:02:16;5.53;;;2.00;;
56893;SDS011;43392;50.078;13.704;2022-12-29T08:04:43;5.63;;;2.20;;
56893;SDS011;43392;50.078;13.704;2022-12-29T08:07:09;3.28;;;1.80;;
56893;SDS011;43392;50.078;13.704;2022-12-29T08:09:37;4.13;;;1.92;;
56893;SDS011;43392;50.078;13.704;2022-12-29T08:12:04;5.35;;;2.22;;
56893;SDS011;43392;50.078;13.704;2022-12-29T08:14:31;4.20;;;2.20;;
56893;SDS011;43392;50.078;13.704;2022-12-29T08:16:57;5.75;;;2.08;;
56893;SDS011;43392;50.078;13.704;2022-12-29T08:19:24;7.68;;;3.35;;
56893;SDS011;43392;50.078;13.704;2022-12-29T08:21:50;7.07;;;3.35;;
56893;SDS011;43392;50.078;13.704;2022-12-29T08:24:18;9.60;;;5.30;;
56893;SDS011;43392;50.078;13.704;2022-12-29T08:26:46;6.07;;;2.70;;
56893;SDS011;43392;50.078;13.704;2022-12-29T08:29:13;6.25;;;2.60;;
56893;SDS011;43392;50.078;13.704;2022-12-29T08:31:39;5.28;;;2.00;;
56893;SDS011;43392;50.078;13.704;2022-12-29T08:34:06;8.70;;;3.60;;
56893;SDS011;43392;50.078;13.704;2022-12-29T08:36:32;9.77;;;4.13;;
56893;SDS011;43392;50.078;13.704;2022-12-29T08:38:59;9.02;;;3.80;;
56893;SDS011;43392;50.078;13.704;2022-12-29T08:41:25;11.02;;;5.50;;
56893;SDS011;43392;50.078;13.704;2022-12-29T08:43:53;11.82;;;4.68;;
56893;SDS011;43392;50.078;13.704;2022-12-29T08:46:20;24.10;;;10.80;;
56893;SDS011;43392;50.078;13.704;2022-12-29T08:48:47;20.52;;;9.88;;
56893;SDS011;43392;50.078;13.704;2022-12-29T08:51:13;27.17;;;11.57;;
56893;SDS011;43392;50.078;13.704;2022-12-29T08:53:40;16.83;;;7.38;;
56893;SDS011;43392;50.078;13.704;2022-12-29T08:56:08;21.48;;;8.13;;
56893;SDS011;43392;50.078;13.704;2022-12-29T08:58:36;9.73;;;3.90;;
56893;SDS011;43392;50.078;13.704;2022-12-29T09:01:04;7.53;;;2.70;;
56893;SDS011;43392;50.078;13.704;2022-12-29T09:03:30;6.43;;;2.22;;
56893;SDS011;43392;50.078;13.704;2022-12-29T09:05:57;6.00;;;2.50;;
56893;SDS011;43392;50.078;13.704;2022-12-29T09:08:24;6.85;;;2.65;;
56893;SDS011;43392;50.078;13.704;2022-12-29T09:10:50;4.20;;;2.20;;
56893;SDS011;43392;50.078;13.704;2022-12-29T09:13:17;3.78;;;1.98;;
56893;SDS011;43392;50.078;13.704;2022-12-29T09:15:44;5.72;;;2.10;;
56893;SDS011;43392;50.078;13.704;2022-12-29T09:18:12;6.45;;;2.22;;
56893;SDS011;43392;50.078;13.704;2022-12-29T09:20:39;6.38;;;2.55;;
56893;SDS011;43392;50.078;13.704;2022-12-29T09:23:05;4.95;;;2.60;;
56893;SDS011;43392;50.078;13.704;2022-12-29T09:25:32;8.02;;;3.17;;
56893;SDS011;43392;50.078;13.704;2022-12-29T09:27:59;6.15;;;2.38;;
56893;SDS011;43392;50.078;13.704;2022-12-29T09:30:29;9.45;;;3.90;;
56893;SDS011;43392;50.078;13.704;2022-12-29T09:32:55;10.45;;;4.53;;
56893;SDS011;43392;50.078;13.704;2022-12-29T09:35:23;11.55;;;4.80;;
56893;SDS011;43392;50.078;13.704;2022-12-29T09:37:50;9.75;;;4.57;;
56893;SDS011;43392;50.078;13.704;2022-12-29T09:40:26;13.38;;;5.78;;
56893;SDS011;43392;50.078;13.704;2022-12-29T09:43:08;16.25;;;5.90;;
56893;SDS011;43392;50.078;13.704;2022-12-29T09:45:44;16.65;;;8.52;;
56893;SDS011;43392;50.078;13.704;2022-12-29T09:48:14;13.75;;;5.97;;
56893;SDS011;43392;50.078;13.704;2022-12-29T09:50:48;12.65;;;6.20;;
56893;SDS011;43392;50.078;13.704;2022-12-29T09:53:20;14.10;;;6.25;;
56893;SDS011;43392;50.078;13.704;2022-12-29T09:55:52;12.73;;;5.68;;
56893;SDS011;43392;50.078;13.704;2022-12-29T09:58:21;25.77;;;12.13;;
56893;SDS011;43392;50.078;13.704;2022-12-29T10:00:58;24.83;;;11.88;;
56893;SDS011;43392;50.078;13.704;2022-12-29T10:03:32;13.82;;;6.97;;
56893;SDS011;43392;50.078;13.704;2022-12-29T10:08:42;13.25;;;5.63;;
56893;SDS011;43392;50.078;13.704;2022-12-29T10:11:19;11.70;;;5.03;;
56893;SDS011;43392;50.078;13.704;2022-12-29T10:14:15;8.40;;;4.50;;
56893;SDS011;43392;50.078;13.704;2022-12-29T10:16:54;10.40;;;4.70;;
56893;SDS011;43392;50.078;13.704;2022-12-29T10:19:37;7.57;;;4.10;;
56893;SDS011;43392;50.078;13.704;2022-12-29T10:22:17;8.15;;;4.50;;
56893;SDS011;43392;50.078;13.704;2022-12-29T10:24:55;9.00;;;4.25;;
56893;SDS011;43392;50.078;13.704;2022-12-29T10:27:22;11.80;;;4.68;;
56893;SDS011;43392;50.078;13.704;2022-12-29T10:29:51;9.40;;;4.40;;
56893;SDS011;43392;50.078;13.704;2022-12-29T10:32:23;9.25;;;4.50;;
56893;SDS011;43392;50.078;13.704;2022-12-29T10:34:57;11.32;;;5.72;;
56893;SDS011;43392;50.078;13.704;2022-12-29T10:37:32;13.05;;;6.70;;
56893;SDS011;43392;50.078;13.704;2022-12-29T10:40:11;13.32;;;6.70;;
56893;SDS011;43392;50.078;13.704;2022-12-29T10:42:44;11.32;;;5.22;;
56893;SDS011;43392;50.078;13.704;2022-12-29T10:45:16;23.40;;;6.72;;
56893;SDS011;43392;50.078;13.704;2022-12-29T10:47:50;9.60;;;5.32;;
56893;SDS011;43392;50.078;13.704;2022-12-29T10:50:19;10.57;;;5.10;;
56893;SDS011;43392;50.078;13.704;2022-12-29T10:52:48;8.10;;;3.95;;
56893;SDS011;43392;50.078;13.704;2022-12-29T10:55:15;9.30;;;3.70;;
56893;SDS011;43392;50.078;13.704;2022-12-29T10:57:46;8.07;;;3.20;;
56893;SDS011;43392;50.078;13.704;2022-12-29T11:00:15;7.80;;;3.08;;
56893;SDS011;43392;50.078;13.704;2022-12-29T11:05:23;5.93;;;3.10;;
56893;SDS011;43392;50.078;13.704;2022-12-29T11:08:00;5.78;;;2.67;;
56893;SDS011;43392;50.078;13.704;2022-12-29T11:12:59;28.90;;;12.63;;
56893;SDS011;43392;50.078;13.704;2022-12-29T11:15:26;9.35;;;4.80;;
56893;SDS011;43392;50.078;13.704;2022-12-29T11:17:53;13.32;;;6.90;;
56893;SDS011;43392;50.078;13.704;2022-12-29T11:22:56;15.95;;;8.77;;
56893;SDS011;43392;50.078;13.704;2022-12-29T11:25:24;13.43;;;8.63;;
56893;SDS011;43392;50.078;13.704;2022-12-29T11:27:58;10.63;;;6.20;;
56893;SDS011;43392;50.078;13.704;2022-12-29T11:30:27;9.07;;;4.65;;
56893;SDS011;43392;50.078;13.704;2022-12-29T11:32:55;7.95;;;3.42;;
56893;SDS011;43392;50.078;13.704;2022-12-29T11:35:29;7.38;;;2.75;;
56893;SDS011;43392;50.078;13.704;2022-12-29T11:37:57;7.63;;;2.95;;
56893;SDS011;43392;50.078;13.704;2022-12-29T11:40:27;7.30;;;3.33;;
56893;SDS011;43392;50.078;13.704;2022-12-29T11:42:55;6.63;;;3.00;;
56893;SDS011;43392;50.078;13.704;2022-12-29T11:45:23;5.65;;;2.50;;
56893;SDS011;43392;50.078;13.704;2022-12-29T11:47:52;5.75;;;2.10;;
56893;SDS011;43392;50.078;13.704;2022-12-29T11:50:21;6.30;;;2.75;;
56893;SDS011;43392;50.078;13.704;2022-12-29T11:52:50;8.30;;;2.45;;
56893;SDS011;43392;50.078;13.704;2022-12-29T11:55:25;6.60;;;3.08;;
56893;SDS011;43392;50.078;13.704;2022-12-29T11:57:54;8.90;;;2.90;;
56893;SDS011;43392;50.078;13.704;2022-12-29T12:00:23;11.32;;;5.03;;
56893;SDS011;43392;50.078;13.704;2022-12-29T12:02:53;10.50;;;5.43;;
56893;SDS011;43392;50.078;13.704;2022-12-29T12:05:29;11.48;;;6.60;;
56893;SDS011;43392;50.078;13.704;2022-12-29T12:08:04;12.63;;;6.13;;
56893;SDS011;43392;50.078;13.704;2022-12-29T12:10:36;7.45;;;4.03;;
56893;SDS011;43392;50.078;13.704;2022-12-29T12:13:16;7.53;;;3.72;;
56893;SDS011;43392;50.078;13.704;2022-12-29T12:15:47;8.48;;;3.45;;
56893;SDS011;43392;50.078;13.704;2022-12-29T12:18:21;4.90;;;2.33;;
56893;SDS011;43392;50.078;13.704;2022-12-29T12:20:57;6.82;;;2.60;;
56893;SDS011;43392;50.078;13.704;2022-12-29T12:23:38;11.43;;;3.97;;
56893;SDS011;43392;50.078;13.704;2022-12-29T12:26:11;25.92;;;9.40;;
56893;SDS011;43392;50.078;13.704;2022-12-29T12:28:42;26.77;;;10.52;;
56893;SDS011;43392;50.078;13.704;2022-12-29T12:31:17;9.38;;;4.10;;
56893;SDS011;43392;50.078;13.704;2022-12-29T12:33:53;20.10;;;8.10;;
56893;SDS011;43392;50.078;13.704;2022-12-29T12:36:30;19.95;;;7.47;;
56893;SDS011;43392;50.078;13.704;2022-12-29T12:39:19;12.68;;;5.15;;
56893;SDS011;43392;50.078;13.704;2022-12-29T12:41:53;15.20;;;6.63;;
56893;SDS011;43392;50.078;13.704;2022-12-29T12:44:33;21.45;;;9.00;;
56893;SDS011;43392;50.078;13.704;2022-12-29T12:47:15;18.15;;;7.90;;
56893;SDS011;43392;50.078;13.704;2022-12-29T12:52:55;11.13;;;5.20;;
56893;SDS011;43392;50.078;13.704;2022-12-29T12:55:44;6.95;;;3.33;;
56893;SDS011;43392;50.078;13.704;2022-12-29T12:58:30;3.95;;;2.03;;
56893;SDS011;43392;50.078;13.704;2022-12-29T13:01:11;6.97;;;2.58;;
56893;SDS011;43392;50.078;13.704;2022-12-29T13:03:58;5.82;;;2.22;;
56893;SDS011;43392;50.078;13.704;2022-12-29T13:06:35;6.13;;;2.60;;
56893;SDS011;43392;50.078;13.704;2022-12-29T13:09:15;7.15;;;3.08;;
56893;SDS011;43392;50.078;13.704;2022-12-29T13:12:06;6.38;;;2.72;;
56893;SDS011;43392;50.078;13.704;2022-12-29T13:14:45;9.90;;;3.72;;
56893;SDS011;43392;50.078;13.704;2022-12-29T13:17:21;10.40;;;4.63;;
56893;SDS011;43392;50.078;13.704;2022-12-29T13:19:57;10.65;;;5.10;;
56893;SDS011;43392;50.078;13.704;2022-12-29T13:22:36;13.48;;;4.97;;
56893;SDS011;43392;50.078;13.704;2022-12-29T13:25:19;12.25;;;5.32;;
56893;SDS011;43392;50.078;13.704;2022-12-29T13:27:53;12.90;;;5.45;;
56893;SDS011;43392;50.078;13.704;2022-12-29T13:30:28;14.88;;;6.85;;
56893;SDS011;43392;50.078;13.704;2022-12-29T13:33:02;7.95;;;3.65;;
56893;SDS011;43392;50.078;13.704;2022-12-29T13:35:42;11.05;;;4.40;;
56893;SDS011;43392;50.078;13.704;2022-12-29T13:38:22;10.45;;;5.15;;
56893;SDS011;43392;50.078;13.704;2022-12-29T13:40:53;10.45;;;4.88;;
56893;SDS011;43392;50.078;13.704;2022-12-29T13:43:22;9.38;;;3.67;;
56893;SDS011;43392;50.078;13.704;2022-12-29T13:45:55;7.35;;;3.22;;
56893;SDS011;43392;50.078;13.704;2022-12-29T13:48:29;6.13;;;2.70;;
56893;SDS011;43392;50.078;13.704;2022-12-29T13:51:03;5.28;;;2.55;;
56893;SDS011;43392;50.078;13.704;2022-12-29T13:53:34;4.82;;;2.15;;
56893;SDS011;43392;50.078;13.704;2022-12-29T13:56:09;6.15;;;2.40;;
56893;SDS011;43392;50.078;13.704;2022-12-29T13:58:47;5.60;;;2.30;;
56893;SDS011;43392;50.078;13.704;2022-12-29T14:01:17;7.68;;;3.45;;
56893;SDS011;43392;50.078;13.704;2022-12-29T14:03:51;5.80;;;2.80;;
56893;SDS011;43392;50.078;13.704;2022-12-29T14:06:21;6.68;;;3.50;;
56893;SDS011;43392;50.078;13.704;2022-12-29T14:08:51;4.68;;;2.20;;
56893;SDS011;43392;50.078;13.704;2022-12-29T14:11:21;6.07;;;2.80;;
56893;SDS011;43392;50.078;13.704;2022-12-29T14:13:50;4.88;;;2.65;;
56893;SDS011;43392;50.078;13.704;2022-12-29T14:16:24;7.57;;;4.05;;
56893;SDS011;43392;50.078;13.704;2022-12-29T14:18:54;6.85;;;3.05;;
56893;SDS011;43392;50.078;13.704;2022-12-29T14:21:23;6.80;;;3.15;;
56893;SDS011;43392;50.078;13.704;2022-12-29T14:23:57;6.28;;;3.13;;
56893;SDS011;43392;50.078;13.704;2022-12-29T14:26:52;7.68;;;3.45;;
56893;SDS011;43392;50.078;13.704;2022-12-29T14:38:12;14.02;;;6.78;;
56893;SDS011;43392;50.078;13.704;2022-12-29T14:40:52;14.30;;;6.93;;
56893;SDS011;43392;50.078;13.704;2022-12-29T14:43:39;12.05;;;5.57;;
56893;SDS011;43392;50.078;13.704;2022-12-29T14:46:05;12.40;;;5.90;;
56893;SDS011;43392;50.078;13.704;2022-12-29T14:48:36;8.40;;;3.63;;
56893;SDS011;43392;50.078;13.704;2022-12-29T14:53:53;8.77;;;3.10;;
56893;SDS011;43392;50.078;13.704;2022-12-29T14:56:23;9.55;;;3.35;;
56893;SDS011;43392;50.078;13.704;2022-12-29T14:58:52;13.73;;;5.18;;
56893;SDS011;43392;50.078;13.704;2022-12-29T15:01:24;11.90;;;4.35;;
56893;SDS011;43392;50.078;13.704;2022-12-29T15:03:57;12.00;;;4.55;;
56893;SDS011;43392;50.078;13.704;2022-12-29T15:06:27;10.20;;;3.80;;
56893;SDS011;43392;50.078;13.704;2022-12-29T15:08:59;9.80;;;4.38;;
56893;SDS011;43392;50.078;13.704;2022-12-29T15:11:41;10.45;;;4.53;;
56893;SDS011;43392;50.078;13.704;2022-12-29T15:14:28;12.05;;;5.10;;
56893;SDS011;43392;50.078;13.704;2022-12-29T15:16:59;12.80;;;6.68;;
56893;SDS011;43392;50.078;13.704;2022-12-29T15:19:26;9.40;;;5.18;;
56893;SDS011;43392;50.078;13.704;2022-12-29T15:21:54;7.55;;;3.83;;